Seattle Express — A8GU5 — position and weather

sailwx.info

Track history (hours):
 
Tides and Currents Weather Stations Pressure Air Temp Water Temp Dewpoint Dewpoint Depression Visibility Wind Speed Wind Dir Waves Ship Positions

Seattle Express

Last reported at 2016-Jan-26 00:15 UTC. Time now 2016-Feb-08 02:03 UTC.
Position N 01°15' E 104°04'.
Warning: this ship's position is 13 days out of date.

Length 264.1 m; beam 32.3 m; draft 12.5 m.

Type: Ship (hazmat cat A). MMSI: 636090860.

Date/timePositionNaut miles runAvg speedWind from/ knotsBaromVisibWave heightAir tempDewpointWater temp
2016-Jan-26 00:15N 01°15' E 104°04'6 8.8
2016-Jan-25 23:33N 01°14' E 103°58'5 5.5
2016-Jan-25 22:33N 01°15' E 103°53'0 0.2
2016-Jan-25 21:33N 01°15' E 103°53'0 0.0
2016-Jan-25 20:33N 01°15' E 103°53'0 0.1
2016-Jan-25 19:33N 01°15' E 103°53'0 0.0
2016-Jan-25 18:33N 01°15' E 103°53'0 0.0
2016-Jan-25 17:33N 01°15' E 103°53'0 0.1
2016-Jan-25 16:33N 01°15' E 103°53'0 0.0
2016-Jan-25 15:33N 01°15' E 103°53'0 0.1
2016-Jan-25 14:33N 01°15' E 103°53'0 0.1
2016-Jan-25 13:33N 01°15' E 103°53'0 0.1
2016-Jan-25 12:33N 01°15' E 103°53'0 0.0
2016-Jan-25 11:33N 01°15' E 103°53'0 0.1
2016-Jan-25 10:33N 01°15' E 103°53'0 0.0
2016-Jan-25 09:27N 01°15' E 103°53'0 0.3
2016-Jan-25 08:33N 01°15' E 103°53'0 0.0
2016-Jan-25 07:33N 01°15' E 103°53'0 0.1
2016-Jan-25 06:20N 01°15' E 103°53'0 0.1
2016-Jan-25 05:32N 01°15' E 103°53'0 0.1
2016-Jan-25 04:32N 01°15' E 103°53'0 0.0
2016-Jan-25 03:32N 01°15' E 103°53'0 0.1
2016-Jan-25 02:32N 01°15' E 103°53'0 0.1
2016-Jan-25 01:20N 01°15' E 103°53'2 1.9
2016-Jan-25 00:28N 01°14' E 103°53'5 4.4
2016-Jan-24 23:25N 01°15' E 103°57'6 7.4
2016-Jan-24 22:33N 01°16' E 104°03'  
Track history (hours):
 
Tides and Currents Weather Stations Pressure Air Temp Water Temp Dewpoint Dewpoint Depression Visibility Wind Speed Wind Dir Waves Ship Positions

Seattle Express

Last reported at 2016-Jan-26 00:15 UTC. Time now 2016-Feb-08 02:03 UTC.
Position N 01°15' E 104°04'.
Warning: this ship's position is 13 days out of date.

Length 264.1 m; beam 32.3 m; draft 12.5 m.

Type: Ship (hazmat cat A). MMSI: 636090860.

Date/timePositionNaut miles runAvg speedWind from/ knotsBaromVisibWave heightAir tempDewpointWater temp
2016-Jan-26 00:15N 01°15' E 104°04'6 8.8
2016-Jan-25 23:33N 01°14' E 103°58'5 5.5
2016-Jan-25 22:33N 01°15' E 103°53'0 0.2
2016-Jan-25 21:33N 01°15' E 103°53'0 0.0
2016-Jan-25 20:33N 01°15' E 103°53'0 0.1
2016-Jan-25 19:33N 01°15' E 103°53'0 0.0
2016-Jan-25 18:33N 01°15' E 103°53'0 0.0
2016-Jan-25 17:33N 01°15' E 103°53'0 0.1
2016-Jan-25 16:33N 01°15' E 103°53'0 0.0
2016-Jan-25 15:33N 01°15' E 103°53'0 0.1
2016-Jan-25 14:33N 01°15' E 103°53'0 0.1
2016-Jan-25 13:33N 01°15' E 103°53'0 0.1
2016-Jan-25 12:33N 01°15' E 103°53'0 0.0
2016-Jan-25 11:33N 01°15' E 103°53'0 0.1
2016-Jan-25 10:33N 01°15' E 103°53'0 0.0
2016-Jan-25 09:27N 01°15' E 103°53'0 0.3
2016-Jan-25 08:33N 01°15' E 103°53'0 0.0
2016-Jan-25 07:33N 01°15' E 103°53'0 0.1
2016-Jan-25 06:20N 01°15' E 103°53'0 0.1
2016-Jan-25 05:32N 01°15' E 103°53'0 0.1
2016-Jan-25 04:32N 01°15' E 103°53'0 0.0
2016-Jan-25 03:32N 01°15' E 103°53'0 0.1
2016-Jan-25 02:32N 01°15' E 103°53'0 0.1
2016-Jan-25 01:20N 01°15' E 103°53'2 1.9
2016-Jan-25 00:28N 01°14' E 103°53'5 4.4
2016-Jan-24 23:25N 01°15' E 103°57'6 7.4
2016-Jan-24 22:33N 01°16' E 104°03'  

Dump ship's entire track history